Time;durP1;ratioP1;P1;durP2;ratioP2;P2;SDS_P1;SDS_P2;PMS_P1;PMS_P2;Temp;Humidity;BMP_temperature;BMP_pressure;BME280_temperature;BME280_humidity;BME280_pressure;Samples;Min_cycle;Max_cycle;Signal;HPM_P1;HPM_P2
2021/05/03 00:01:59;;;;;;;3.90;2.33;;;7.90;94.10;;;;;;5034567;28;20026;-75
2021/05/03 00:04:25;;;;;;;12.30;2.88;;;7.90;93.90;;;;;;5032555;28;20144;-74
2021/05/03 00:06:50;;;;;;;3.58;2.45;;;7.80;94.00;;;;;;5032814;28;20056;-75
2021/05/03 00:09:16;;;;;;;9.52;3.47;;;7.80;94.00;;;;;;5032120;28;20033;-74
2021/05/03 00:11:42;;;;;;;5.00;2.50;;;7.90;93.90;;;;;;5031983;28;20067;-73
2021/05/03 00:14:07;;;;;;;8.45;2.65;;;7.90;93.90;;;;;;5034225;28;20099;-74
2021/05/03 00:16:34;;;;;;;6.40;2.63;;;7.80;94.00;;;;;;5032883;28;20044;-74
2021/05/03 00:18:59;;;;;;;5.82;2.72;;;7.90;93.90;;;;;;5032683;28;20038;-74
2021/05/03 00:21:25;;;;;;;5.55;2.35;;;7.70;94.00;;;;;;5032613;28;20036;-75
2021/05/03 00:23:50;;;;;;;6.97;2.70;;;7.70;94.10;;;;;;5032878;28;20042;-75
2021/05/03 00:26:17;;;;;;;6.07;2.50;;;7.60;94.10;;;;;;5031549;28;20029;-76
2021/05/03 00:28:43;;;;;;;5.35;2.38;;;7.70;94.10;;;;;;5033865;28;20045;-73
2021/05/03 00:31:09;;;;;;;8.20;2.35;;;7.60;94.00;;;;;;5031378;28;20033;-74
2021/05/03 00:33:35;;;;;;;5.95;2.55;;;7.70;94.00;;;;;;5032196;28;20280;-75
2021/05/03 00:36:01;;;;;;;12.70;2.67;;;7.70;94.00;;;;;;5031146;28;20037;-74
2021/05/03 00:38:27;;;;;;;4.18;2.20;;;7.60;93.80;;;;;;5031977;28;20530;-73
2021/05/03 00:40:53;;;;;;;4.70;2.42;;;7.60;94.00;;;;;;5033835;28;20026;-74
2021/05/03 00:43:20;;;;;;;6.93;2.58;;;7.70;94.00;;;;;;5030951;28;20033;-75
2021/05/03 00:45:47;;;;;;;4.80;2.63;;;7.60;94.00;;;;;;5031964;28;20372;-74
2021/05/03 00:48:14;;;;;;;3.47;2.27;;;7.70;93.90;;;;;;5030888;28;20040;-75
2021/05/03 00:50:41;;;;;;;7.32;2.30;;;7.70;93.90;;;;;;5031962;28;20463;-74
2021/05/03 00:53:07;;;;;;;5.28;2.47;;;7.70;93.90;;;;;;5033460;28;20041;-74
2021/05/03 00:55:32;;;;;;;4.43;2.15;;;7.80;93.80;;;;;;5030923;28;20041;-75
2021/05/03 00:57:59;;;;;;;3.47;2.33;;;7.60;94.10;;;;;;5031909;28;20091;-74
2021/05/03 01:00:26;;;;;;;4.75;2.20;;;7.50;94.10;;;;;;5032191;28;20057;-75
2021/05/03 01:02:52;;;;;;;3.20;2.13;;;7.50;94.20;;;;;;5032036;28;20038;-74
2021/05/03 01:05:21;;;;;;;7.32;2.55;;;7.50;94.30;;;;;;5031918;28;20022;-74
2021/05/03 01:07:47;;;;;;;3.22;2.10;;;7.40;94.40;;;;;;5033239;28;20025;-74
2021/05/03 01:10:15;;;;;;;3.38;2.30;;;7.40;94.40;;;;;;5031624;28;20061;-74
2021/05/03 01:12:41;;;;;;;10.97;3.03;;;7.50;94.40;;;;;;5031425;28;20030;-74
2021/05/03 01:15:09;;;;;;;6.22;2.42;;;7.40;94.30;;;;;;5031618;28;20521;-74
2021/05/03 01:17:35;;;;;;;10.43;2.97;;;7.50;94.30;;;;;;5031486;28;20838;-75
2021/05/03 01:20:11;;;;;;;6.95;2.55;;;7.40;94.30;;;;;;5032224;28;20021;-75
2021/05/03 01:22:38;;;;;;;10.45;2.60;;;7.30;94.40;;;;;;5031518;28;20095;-75
2021/05/03 01:25:06;;;;;;;5.93;2.80;;;7.30;94.40;;;;;;5031624;28;20556;-74
2021/05/03 01:27:32;;;;;;;4.05;2.13;;;7.20;94.80;;;;;;5031239;28;20042;-73
2021/05/03 01:29:57;;;;;;;7.00;2.33;;;7.30;94.60;;;;;;5031158;28;20036;-74
2021/05/03 01:32:23;;;;;;;4.50;2.13;;;7.20;94.60;;;;;;5031200;28;20618;-74
2021/05/03 01:34:49;;;;;;;7.07;2.90;;;7.20;94.60;;;;;;5032573;28;20325;-74
2021/05/03 01:37:15;;;;;;;3.17;2.20;;;7.20;94.70;;;;;;5030275;28;20064;-75
2021/05/03 01:39:41;;;;;;;5.85;2.53;;;7.20;94.60;;;;;;5031235;28;20034;-75
2021/05/03 01:42:06;;;;;;;3.50;2.00;;;7.20;94.70;;;;;;5031310;28;20345;-74
2021/05/03 01:44:33;;;;;;;9.20;3.03;;;7.10;94.80;;;;;;5031348;28;20053;-75
2021/05/03 01:46:58;;;;;;;5.05;2.50;;;7.10;94.90;;;;;;5032552;28;20053;-75
2021/05/03 01:49:26;;;;;;;4.55;2.72;;;7.10;95.00;;;;;;5030019;28;20076;-74
2021/05/03 01:51:52;;;;;;;4.60;3.33;;;7.00;95.00;;;;;;5031077;28;20033;-74
2021/05/03 01:54:18;;;;;;;8.43;2.40;;;7.00;95.00;;;;;;5030679;28;20041;-75
2021/05/03 01:56:44;;;;;;;5.15;2.65;;;7.00;95.00;;;;;;5031003;28;20120;-74
2021/05/03 01:59:10;;;;;;;7.93;3.13;;;7.10;95.00;;;;;;5032378;28;20021;-74
2021/05/03 02:01:40;;;;;;;10.00;2.90;;;7.10;94.90;;;;;;5029655;28;20049;-75
2021/05/03 02:04:09;;;;;;;7.93;2.83;;;7.10;94.90;;;;;;5030756;28;20043;-75
2021/05/03 02:06:37;;;;;;;4.95;2.65;;;7.10;94.90;;;;;;5030544;28;20037;-74
2021/05/03 02:09:10;;;;;;;4.30;2.28;;;6.90;95.00;;;;;;5030559;28;20041;-75
2021/05/03 02:11:37;;;;;;;7.68;2.55;;;6.80;95.20;;;;;;5030571;28;20033;-75
2021/05/03 02:14:03;;;;;;;6.95;2.80;;;6.90;95.00;;;;;;5032052;28;20063;-74
2021/05/03 02:16:30;;;;;;;7.47;2.63;;;6.90;95.10;;;;;;5030446;28;20025;-75
2021/05/03 02:18:55;;;;;;;9.07;2.90;;;6.70;95.30;;;;;;5016802;28;20033;-74
2021/05/03 02:21:21;;;;;;;5.95;2.90;;;6.80;95.30;;;;;;5019802;28;20037;-74
2021/05/03 02:23:47;;;;;;;7.70;2.80;;;6.70;95.40;;;;;;5029185;28;20029;-75
2021/05/03 02:26:13;;;;;;;7.68;2.92;;;6.80;95.40;;;;;;5031778;28;20037;-74
2021/05/03 02:28:39;;;;;;;4.85;2.42;;;6.80;95.30;;;;;;5009593;28;20054;-76
2021/05/03 02:31:04;;;;;;;5.20;2.50;;;6.80;95.40;;;;;;5025576;28;20034;-75
2021/05/03 02:33:30;;;;;;;7.57;2.97;;;6.80;95.20;;;;;;5018923;28;20037;-74
2021/05/03 02:35:56;;;;;;;5.32;2.63;;;6.70;95.30;;;;;;5015699;28;20025;-73
2021/05/03 02:38:23;;;;;;;6.43;2.92;;;6.60;95.50;;;;;;5029776;28;20034;-75
2021/05/03 02:40:49;;;;;;;6.18;2.97;;;6.70;95.50;;;;;;5030621;28;20022;-74
2021/05/03 02:43:15;;;;;;;10.45;3.47;;;6.70;95.40;;;;;;5030296;28;20045;-74
2021/05/03 02:45:40;;;;;;;6.72;2.92;;;6.80;95.30;;;;;;5030040;28;20113;-75
2021/05/03 02:48:06;;;;;;;8.23;3.13;;;6.60;95.50;;;;;;5030093;28;20174;-75
2021/05/03 02:50:32;;;;;;;6.18;2.63;;;6.70;95.50;;;;;;5029659;28;20105;-74
2021/05/03 02:52:57;;;;;;;5.47;3.45;;;6.60;95.70;;;;;;5031486;28;20030;-75
2021/05/03 02:55:23;;;;;;;9.38;3.38;;;6.50;95.70;;;;;;5030078;28;20038;-75
2021/05/03 02:57:50;;;;;;;7.47;3.30;;;6.50;95.80;;;;;;5029879;28;20053;-75
2021/05/03 03:00:26;;;;;;;9.95;3.03;;;6.60;95.60;;;;;;5029421;28;20040;-75
2021/05/03 03:02:52;;;;;;;9.95;2.95;;;6.60;95.60;;;;;;5029801;28;20129;-73
2021/05/03 03:05:18;;;;;;;6.10;2.67;;;6.50;95.70;;;;;;5029521;28;20097;-74
2021/05/03 03:07:44;;;;;;;8.88;3.20;;;6.50;95.60;;;;;;5031030;28;20026;-75
2021/05/03 03:10:10;;;;;;;7.65;3.30;;;6.60;95.70;;;;;;5029535;28;20052;-75
2021/05/03 03:12:36;;;;;;;8.95;3.20;;;6.60;95.60;;;;;;5028294;28;20033;-75
2021/05/03 03:15:04;;;;;;;6.78;2.78;;;6.50;95.60;;;;;;5029614;28;20475;-75
2021/05/03 03:17:29;;;;;;;5.25;3.00;;;6.50;95.80;;;;;;5029319;28;20498;-74
2021/05/03 03:19:55;;;;;;;6.60;3.30;;;6.40;96.00;;;;;;5030953;28;20108;-75
2021/05/03 03:22:21;;;;;;;8.27;3.47;;;6.40;95.90;;;;;;5029455;28;20128;-75
2021/05/03 03:24:47;;;;;;;7.72;3.03;;;6.40;95.90;;;;;;5029328;28;20041;-75
2021/05/03 03:27:12;;;;;;;8.38;3.72;;;6.40;95.80;;;;;;5029237;28;20418;-75
2021/05/03 03:29:38;;;;;;;5.10;3.28;;;6.50;95.80;;;;;;5028035;28;20465;-75
2021/05/03 03:32:03;;;;;;;7.28;3.50;;;6.50;95.80;;;;;;5030901;28;20034;-75
2021/05/03 03:34:29;;;;;;;8.00;3.55;;;6.50;95.70;;;;;;5028378;28;20053;-74
2021/05/03 03:36:55;;;;;;;7.78;3.47;;;6.50;95.70;;;;;;5029423;28;20118;-74
2021/05/03 03:39:20;;;;;;;9.48;3.97;;;6.50;95.80;;;;;;5029243;28;20057;-75
2021/05/03 03:41:46;;;;;;;8.07;3.45;;;6.50;95.70;;;;;;5028032;28;20413;-75
2021/05/03 03:44:11;;;;;;;6.38;3.53;;;6.50;95.70;;;;;;5029641;28;20555;-75
2021/05/03 03:46:37;;;;;;;6.78;3.25;;;6.50;95.70;;;;;;5028087;28;20061;-75
2021/05/03 03:49:04;;;;;;;19.48;4.43;;;6.50;95.80;;;;;;5027982;28;20125;-75
2021/05/03 03:51:29;;;;;;;5.93;3.45;;;6.50;95.70;;;;;;5028143;28;20037;-75
2021/05/03 03:53:55;;;;;;;9.00;4.40;;;6.40;95.90;;;;;;5029034;28;20510;-75
2021/05/03 03:56:22;;;;;;;7.45;2.83;;;6.30;96.00;;;;;;5028764;28;20420;-75
2021/05/03 03:58:48;;;;;;;8.30;3.83;;;6.40;96.00;;;;;;5029724;28;20348;-75
2021/05/03 04:01:14;;;;;;;7.07;4.03;;;6.50;96.30;;;;;;5029049;28;20067;-75
2021/05/03 04:03:48;;;;;;;7.82;3.70;;;6.50;96.00;;;;;;5029069;28;20412;-75
2021/05/03 04:06:22;;;;;;;10.55;3.70;;;6.50;95.90;;;;;;5028018;28;20040;-74
2021/05/03 04:09:01;;;;;;;11.80;4.03;;;6.60;95.80;;;;;;5029155;28;20045;-75
2021/05/03 04:25:21;;;;;;;11.75;4.55;;;6.50;96.00;;;;;;5032525;28;20034;-75
2021/05/03 04:27:46;;;;;;;8.68;3.88;;;6.60;96.10;;;;;;5032247;28;20575;-75
2021/05/03 04:30:13;;;;;;;7.07;3.80;;;6.60;96.00;;;;;;5032419;28;20116;-76
2021/05/03 04:32:39;;;;;;;8.30;4.03;;;6.60;95.90;;;;;;5032492;28;20402;-74
2021/05/03 04:35:05;;;;;;;12.90;4.38;;;6.70;96.00;;;;;;5033738;28;20360;-75
2021/05/03 04:37:32;;;;;;;12.02;5.50;;;6.70;96.00;;;;;;5031736;28;20048;-74
2021/05/03 04:39:57;;;;;;;7.13;4.25;;;6.70;96.00;;;;;;5032459;28;20046;-75
2021/05/03 04:42:23;;;;;;;7.97;3.85;;;6.80;95.90;;;;;;5032452;28;20029;-75
2021/05/03 04:44:49;;;;;;;9.60;3.90;;;6.80;95.80;;;;;;5031907;28;20041;-74
2021/05/03 04:47:14;;;;;;;9.20;3.28;;;6.70;95.90;;;;;;5033444;28;20407;-74
2021/05/03 04:49:40;;;;;;;7.95;3.90;;;6.80;95.90;;;;;;5032445;28;20046;-75
2021/05/03 04:52:06;;;;;;;8.20;3.75;;;6.80;95.90;;;;;;5031788;28;20110;-74
2021/05/03 04:54:32;;;;;;;16.55;4.25;;;6.80;95.80;;;;;;5032126;28;20080;-74
2021/05/03 04:56:57;;;;;;;12.07;3.80;;;6.80;95.80;;;;;;5031838;28;20371;-75
2021/05/03 04:59:23;;;;;;;7.53;3.95;;;6.90;95.80;;;;;;5030766;28;20032;-75
2021/05/03 05:01:48;;;;;;;8.05;3.80;;;7.00;95.70;;;;;;5033331;28;20033;-75
2021/05/03 05:04:14;;;;;;;8.43;3.67;;;7.00;95.70;;;;;;5031587;28;20402;-75
2021/05/03 05:06:40;;;;;;;23.30;3.80;;;7.00;95.60;;;;;;5031656;28;20115;-75
2021/05/03 05:09:06;;;;;;;8.00;3.83;;;7.00;95.60;;;;;;5031875;28;20030;-76
2021/05/03 05:11:32;;;;;;;11.85;4.35;;;7.10;95.60;;;;;;5031232;28;20569;-75
2021/05/03 05:13:58;;;;;;;14.38;3.47;;;7.10;95.60;;;;;;5033023;28;20041;-75
2021/05/03 05:16:24;;;;;;;11.20;3.90;;;7.20;95.50;;;;;;5031592;28;20026;-75
2021/05/03 05:18:50;;;;;;;9.43;3.83;;;7.10;95.40;;;;;;5031482;28;20065;-73
2021/05/03 05:21:16;;;;;;;11.02;3.60;;;7.20;95.50;;;;;;5031302;28;20041;-74
2021/05/03 05:23:41;;;;;;;5.03;3.30;;;7.30;95.30;;;;;;5030913;28;20451;-74
2021/05/03 05:26:08;;;;;;;5.95;2.75;;;7.30;95.10;;;;;;5032639;28;20034;-75
2021/05/03 05:28:37;;;;;;;8.60;3.10;;;7.30;95.10;;;;;;5031310;28;20080;-74
2021/05/03 05:31:03;;;;;;;8.10;3.05;;;7.40;95.10;;;;;;5031140;28;20045;-75
2021/05/03 05:33:29;;;;;;;8.93;2.97;;;7.40;94.90;;;;;;5030840;28;20053;-74
2021/05/03 05:35:55;;;;;;;5.22;3.22;;;7.50;94.80;;;;;;5029869;28;20137;-74
2021/05/03 05:38:20;;;;;;;8.90;3.38;;;7.50;94.70;;;;;;5030814;28;20026;-74
2021/05/03 05:40:46;;;;;;;10.55;3.15;;;7.50;94.80;;;;;;5031231;28;20566;-75
2021/05/03 05:43:13;;;;;;;4.53;2.65;;;7.60;94.90;;;;;;5029119;28;20396;-76
2021/05/03 05:45:39;;;;;;;6.30;3.08;;;7.60;94.90;;;;;;5029430;28;20037;-75
2021/05/03 05:48:04;;;;;;;7.90;3.28;;;7.80;94.70;;;;;;5022336;28;20325;-75
2021/05/03 05:50:30;;;;;;;6.75;2.60;;;7.80;94.60;;;;;;5011860;28;20030;-75
2021/05/03 05:52:56;;;;;;;7.28;3.08;;;7.90;94.50;;;;;;5032185;28;20022;-75
2021/05/03 05:55:22;;;;;;;9.38;3.10;;;8.00;94.40;;;;;;5030280;28;20120;-74
2021/05/03 05:57:48;;;;;;;5.80;2.80;;;8.10;94.30;;;;;;5030525;28;20026;-74
2021/05/03 06:00:14;;;;;;;9.27;3.00;;;8.20;94.20;;;;;;5029033;28;20367;-74
2021/05/03 06:02:40;;;;;;;8.43;2.97;;;8.40;94.10;;;;;;5029323;28;20088;-74
2021/05/03 06:05:06;;;;;;;6.13;2.60;;;8.50;93.80;;;;;;5031908;28;20356;-75
2021/05/03 06:07:32;;;;;;;5.32;2.78;;;8.60;93.60;;;;;;5030548;28;20052;-75
2021/05/03 06:09:59;;;;;;;4.18;2.70;;;8.60;93.40;;;;;;5030279;28;20045;-74
2021/05/03 06:12:24;;;;;;;7.85;2.65;;;8.60;93.40;;;;;;5030511;28;20112;-75
2021/05/03 06:14:52;;;;;;;5.53;2.90;;;8.50;93.40;;;;;;5030080;28;20121;-76
2021/05/03 06:17:20;;;;;;;21.30;2.70;;;8.70;93.40;;;;;;5029001;28;20521;-75
2021/05/03 06:19:46;;;;;;;5.80;2.50;;;8.70;93.50;;;;;;5031706;28;20026;-75
2021/05/03 06:22:12;;;;;;;9.45;3.25;;;8.70;93.40;;;;;;5029764;28;20049;-75
2021/05/03 06:24:38;;;;;;;7.45;2.67;;;8.90;93.30;;;;;;5028833;28;20060;-75
2021/05/03 06:27:04;;;;;;;5.63;2.63;;;9.20;93.20;;;;;;5030210;28;20466;-74
2021/05/03 06:29:29;;;;;;;8.32;2.67;;;9.20;92.80;;;;;;5029576;28;20056;-74
2021/05/03 06:31:57;;;;;;;3.20;2.35;;;9.40;92.70;;;;;;5031730;28;20514;-74
2021/05/03 06:34:23;;;;;;;8.85;2.50;;;9.40;92.50;;;;;;5029913;28;20056;-75
2021/05/03 06:36:49;;;;;;;8.95;3.00;;;9.60;92.40;;;;;;5029308;28;20041;-74
2021/05/03 06:39:15;;;;;;;4.13;2.20;;;9.40;92.40;;;;;;5029884;28;20064;-74
2021/05/03 06:41:41;;;;;;;4.28;2.63;;;9.40;92.00;;;;;;5029769;28;20442;-76
2021/05/03 06:44:07;;;;;;;6.20;2.60;;;9.40;92.20;;;;;;5031560;28;20025;-75
2021/05/03 06:46:33;;;;;;;3.63;2.05;;;9.60;92.10;;;;;;5029944;28;20049;-75
2021/05/03 06:48:58;;;;;;;3.45;1.80;;;9.90;91.80;;;;;;5029806;28;20052;-75
2021/05/03 06:51:24;;;;;;;5.25;1.90;;;10.10;90.90;;;;;;5028466;28;20428;-73
2021/05/03 06:53:49;;;;;;;8.88;2.33;;;10.40;90.80;;;;;;5028312;28;20524;-75
2021/05/03 06:56:15;;;;;;;6.70;1.92;;;10.80;90.50;;;;;;5029622;28;20033;-73
2021/05/03 06:58:41;;;;;;;3.47;1.65;;;10.80;89.60;;;;;;5030997;28;20033;-74
2021/05/03 07:01:06;;;;;;;3.47;1.95;;;10.90;90.00;;;;;;5029225;28;20049;-76
2021/05/03 07:03:32;;;;;;;5.43;2.22;;;10.70;89.30;;;;;;5028723;28;20400;-75
2021/05/03 07:05:58;;;;;;;4.80;1.63;;;10.60;89.60;;;;;;5029473;28;20045;-75
2021/05/03 07:08:25;;;;;;;9.43;2.53;;;10.60;90.10;;;;;;5028291;28;20018;-74
2021/05/03 07:10:54;;;;;;;6.65;2.33;;;10.30;90.80;;;;;;5030863;28;20482;-75
2021/05/03 07:13:20;;;;;;;3.08;2.38;;;10.10;91.30;;;;;;5029116;28;20041;-75
2021/05/03 07:15:46;;;;;;;3.35;1.95;;;10.10;91.70;;;;;;5029352;28;20034;-74
2021/05/03 07:18:12;;;;;;;3.38;2.00;;;10.00;92.10;;;;;;5028072;28;20045;-74
2021/05/03 07:20:37;;;;;;;3.38;2.33;;;10.00;92.20;;;;;;5029010;28;20103;-74
2021/05/03 07:23:04;;;;;;;6.40;2.00;;;9.90;92.80;;;;;;5030758;28;20462;-74
2021/05/03 07:25:30;;;;;;;7.10;2.70;;;9.60;93.00;;;;;;5029018;28;20124;-74
2021/05/03 07:27:55;;;;;;;3.63;1.80;;;9.40;94.10;;;;;;5029066;28;20547;-74
2021/05/03 07:30:21;;;;;;;2.88;2.00;;;9.40;93.80;;;;;;5019679;28;20046;-74
2021/05/03 07:32:47;;;;;;;4.28;1.63;;;9.40;94.10;;;;;;5013980;28;20108;-73
2021/05/03 07:35:13;;;;;;;5.22;1.95;;;9.40;94.30;;;;;;5030678;28;20432;-75
2021/05/03 07:37:39;;;;;;;6.78;2.80;;;9.30;94.30;;;;;;5028663;28;20072;-75
2021/05/03 07:40:06;;;;;;;4.68;2.67;;;9.40;94.20;;;;;;5027960;28;20156;-75
2021/05/03 07:42:32;;;;;;;3.85;2.47;;;9.40;94.80;;;;;;5029253;28;20250;-74
2021/05/03 07:44:57;;;;;;;2.90;1.77;;;9.40;94.30;;;;;;5029197;28;20029;-74
2021/05/03 07:47:24;;;;;;;2.92;2.33;;;9.30;94.10;;;;;;5030020;28;20482;-74
2021/05/03 07:49:50;;;;;;;6.30;2.08;;;9.30;94.50;;;;;;5034764;28;20021;-75
2021/05/03 07:52:15;;;;;;;4.25;2.10;;;9.20;94.70;;;;;;5033027;28;20038;-74
2021/05/03 07:54:41;;;;;;;4.43;2.67;;;9.20;94.60;;;;;;5031910;28;20048;-75
2021/05/03 07:57:07;;;;;;;8.45;2.53;;;9.40;94.90;;;;;;5032921;28;20416;-74
2021/05/03 07:59:32;;;;;;;3.67;2.45;;;9.30;94.70;;;;;;5033023;28;20044;-74
2021/05/03 08:01:58;;;;;;;5.75;3.35;;;9.30;95.10;;;;;;5034439;28;20423;-75
2021/05/03 08:04:25;;;;;;;6.95;2.50;;;9.30;95.40;;;;;;5032359;28;20037;-74
2021/05/03 08:06:55;;;;;;;5.15;2.20;;;9.40;95.50;;;;;;5032556;28;20096;-74
2021/05/03 08:09:20;;;;;;;6.35;3.20;;;9.40;94.70;;;;;;5032646;28;20487;-75
2021/05/03 08:11:46;;;;;;;11.15;3.22;;;9.50;94.80;;;;;;5032808;28;20022;-74
2021/05/03 08:14:15;;;;;;;3.95;2.70;;;9.60;95.10;;;;;;5034083;28;20033;-74
2021/05/03 08:16:42;;;;;;;2.83;1.90;;;9.60;94.60;;;;;;5032944;28;20417;-75
2021/05/03 08:19:07;;;;;;;4.72;1.88;;;9.70;94.00;;;;;;5032081;28;20518;-75
2021/05/03 08:21:34;;;;;;;4.40;1.90;;;9.80;93.40;;;;;;5031699;28;20121;-74
2021/05/03 08:23:59;;;;;;;3.75;1.55;;;10.20;92.90;;;;;;5031298;28;20087;-75
2021/05/03 08:26:25;;;;;;;2.78;1.88;;;10.70;92.80;;;;;;5032424;28;20026;-74
2021/05/03 08:28:51;;;;;;;2.88;1.70;;;11.50;91.70;;;;;;5032664;28;20033;-74
2021/05/03 08:31:16;;;;;;;4.78;2.10;;;12.00;90.30;;;;;;5031899;28;20437;-75
2021/05/03 08:33:42;;;;;;;3.47;1.75;;;12.60;90.20;;;;;;5030640;28;20510;-75
2021/05/03 08:36:08;;;;;;;3.38;2.03;;;12.40;86.90;;;;;;5031328;28;20073;-74
2021/05/03 08:38:34;;;;;;;4.63;2.53;;;12.30;87.70;;;;;;5031576;28;20021;-74
2021/05/03 08:41:02;;;;;;;4.45;2.75;;;12.30;88.60;;;;;;5032171;28;20033;-76
2021/05/03 08:43:29;;;;;;;;;;;12.40;88.10;;;;;;5032285;28;20123;-75
2021/05/03 08:45:55;;;;;;;3.78;2.72;;;12.30;87.50;;;;;;5031652;28;19913;-74
2021/05/03 08:48:34;;;;;;;5.78;3.17;;;12.30;87.00;;;;;;5031684;28;20097;-74
2021/05/03 08:53:42;;;;;;;4.57;3.05;;;13.10;84.70;;;;;;5031978;28;20110;-74
2021/05/03 08:56:09;;;;;;;5.97;3.33;;;13.50;84.80;;;;;;5032347;28;20029;-74
2021/05/03 08:58:39;;;;;;;4.18;2.88;;;14.50;83.90;;;;;;5030004;28;20103;-74
2021/05/03 09:01:06;;;;;;;5.88;2.97;;;15.60;82.60;;;;;;5030666;28;20523;-75
2021/05/03 09:03:34;;;;;;;6.32;2.70;;;16.30;79.40;;;;;;5030736;28;20036;-74
2021/05/03 09:06:04;;;;;;;2.72;2.22;;;16.90;74.80;;;;;;5031542;28;20261;-74
2021/05/03 09:08:31;;;;;;;3.80;2.65;;;17.60;72.40;;;;;;5030100;28;20037;-74
2021/05/03 09:10:57;;;;;;;5.70;2.60;;;17.10;68.70;;;;;;5033143;28;20348;-73
2021/05/03 09:13:33;;;;;;;3.10;2.53;;;17.10;69.60;;;;;;5031458;28;20049;-74
2021/05/03 09:16:17;;;;;;;7.15;2.90;;;17.60;69.70;;;;;;5031655;28;20037;-72
2021/05/03 09:18:43;;;;;;;5.45;2.78;;;18.50;65.70;;;;;;5031354;28;20052;-73
2021/05/03 09:21:30;;;;;;;5.85;2.90;;;18.70;60.40;;;;;;5031482;28;20133;-74
2021/05/03 09:24:09;;;;;;;5.68;2.75;;;19.30;58.60;;;;;;5031329;28;20463;-74
2021/05/03 09:26:43;;;;;;;4.88;2.75;;;18.40;57.00;;;;;;5031096;28;21065;-75
2021/05/03 09:29:30;;;;;;;5.93;2.80;;;19.50;58.60;;;;;;5032363;28;20077;-75
2021/05/03 09:32:05;;;;;;;3.43;2.90;;;20.00;54.40;;;;;;5031032;28;20040;-73
2021/05/03 09:34:42;;;;;;;4.13;3.00;;;20.00;53.00;;;;;;5029991;28;20124;-76
2021/05/03 09:37:23;;;;;;;6.47;2.83;;;20.10;52.30;;;;;;5031050;28;20053;-74
2021/05/03 09:40:09;;;;;;;8.23;3.03;;;20.10;51.40;;;;;;5030996;28;20072;-75
2021/05/03 09:42:54;;;;;;;9.70;3.15;;;18.80;50.50;;;;;;5031019;28;20049;-75
2021/05/03 09:45:27;;;;;;;3.75;2.95;;;19.00;52.50;;;;;;5030905;28;20092;-73
2021/05/03 09:47:58;;;;;;;7.43;3.30;;;18.70;51.80;;;;;;5030503;28;20099;-74
2021/05/03 09:50:30;;;;;;;6.22;3.17;;;18.20;52.30;;;;;;5029536;28;20070;-73
2021/05/03 09:53:04;;;;;;;4.75;3.00;;;17.90;51.90;;;;;;5032109;28;20083;-75
2021/05/03 09:55:39;;;;;;;8.52;3.30;;;18.10;52.00;;;;;;5029601;28;20038;-74
2021/05/03 09:58:21;;;;;;;8.95;3.47;;;17.60;50.80;;;;;;5030766;28;20029;-75
2021/05/03 10:00:48;;;;;;;6.07;3.58;;;17.50;50.90;;;;;;5030428;28;20105;-72
2021/05/03 10:03:42;;;;;;;6.43;3.75;;;17.30;50.90;;;;;;5029284;28;20033;-73
2021/05/03 10:06:10;;;;;;;5.25;3.63;;;17.90;50.80;;;;;;5030357;28;20136;-73
2021/05/03 10:08:36;;;;;;;4.68;3.15;;;18.20;49.90;;;;;;5029992;28;20037;-73
2021/05/03 10:11:07;;;;;;;5.63;3.55;;;17.90;50.50;;;;;;5030050;28;20033;-74
2021/05/03 10:13:34;;;;;;;7.50;4.05;;;17.00;50.60;;;;;;5030338;28;20053;-72
2021/05/03 10:16:00;;;;;;;8.15;3.63;;;16.60;51.60;;;;;;5028980;28;20439;-73
2021/05/03 10:18:28;;;;;;;6.88;3.95;;;16.50;52.50;;;;;;5029976;28;20041;-74
2021/05/03 10:20:55;;;;;;;5.90;4.32;;;16.50;52.00;;;;;;5029222;28;20124;-74
2021/05/03 10:23:23;;;;;;;7.03;4.10;;;16.60;52.60;;;;;;5029730;28;20048;-73
2021/05/03 10:25:54;;;;;;;;;;;16.00;53.40;;;;;;5031082;28;20022;-73
2021/05/03 10:28:19;;;;;;;6.35;3.75;;;16.00;53.20;;;;;;5028377;28;19979;-73
2021/05/03 10:30:49;;;;;;;11.43;4.07;;;15.70;53.60;;;;;;5028767;28;20724;-73
2021/05/03 10:33:16;;;;;;;8.98;4.15;;;15.80;53.70;;;;;;5030139;28;20076;-74
2021/05/03 10:35:48;;;;;;;6.80;3.83;;;15.20;55.00;;;;;;5028467;28;20049;-73
2021/05/03 10:38:36;;;;;;;6.80;4.05;;;15.50;54.90;;;;;;5031323;28;20025;-73
2021/05/03 10:41:23;;;;;;;7.53;4.55;;;15.60;53.80;;;;;;5029874;28;20075;-74
2021/05/03 10:43:50;;;;;;;9.03;5.00;;;15.40;53.70;;;;;;5029952;28;20037;-74
2021/05/03 10:49:06;;;;;;;7.60;4.63;;;15.20;54.30;;;;;;5029609;28;20065;-74
2021/05/03 10:54:16;;;;;;;12.10;5.03;;;14.90;54.30;;;;;;5029525;28;20103;-74
2021/05/03 10:56:42;;;;;;;8.20;4.65;;;14.80;54.50;;;;;;5029648;28;20098;-74
2021/05/03 10:59:09;;;;;;;12.02;4.90;;;14.90;55.30;;;;;;5030868;28;20033;-74
2021/05/03 11:01:53;;;;;;;14.43;5.50;;;15.30;55.20;;;;;;5029351;28;20132;-74
2021/05/03 11:04:19;;;;;;;9.80;5.00;;;15.50;54.80;;;;;;5028166;28;20259;-74
2021/05/03 11:06:48;;;;;;;10.80;5.13;;;15.00;54.80;;;;;;5028127;28;20337;-74
2021/05/03 11:09:34;;;;;;;12.02;5.45;;;15.20;55.30;;;;;;5029482;28;20044;-75
2021/05/03 11:12:22;;;;;;;9.55;5.47;;;14.90;54.70;;;;;;5028978;28;20087;-73
2021/05/03 11:15:20;;;;;;;10.98;4.97;;;15.00;54.70;;;;;;5029153;28;20172;-75
2021/05/03 11:18:16;;;;;;;8.73;5.60;;;14.90;54.70;;;;;;5032327;28;20051;-73
2021/05/03 11:21:12;;;;;;;11.15;5.22;;;14.60;53.70;;;;;;5029163;28;20037;-74
2021/05/03 11:23:39;;;;;;;9.38;5.90;;;14.50;54.20;;;;;;5025984;28;20038;-74
2021/05/03 11:26:33;;;;;;;10.25;5.32;;;14.50;53.90;;;;;;5010967;28;20033;-74
2021/05/03 11:29:14;;;;;;;7.95;4.97;;;14.50;54.00;;;;;;5044696;28;20375;-73
2021/05/03 11:31:39;;;;;;;14.23;5.95;;;14.70;53.90;;;;;;5029204;28;20085;-73
2021/05/03 11:34:17;;;;;;;13.20;6.03;;;14.70;53.70;;;;;;5028547;28;20069;-74
2021/05/03 11:36:49;;;;;;;;;;;14.30;54.40;;;;;;5029259;28;20049;-73
2021/05/03 11:39:31;;;;;;;10.57;6.10;;;14.40;54.50;;;;;;5044110;28;19912;-74
2021/05/03 11:42:29;;;;;;;8.20;5.25;;;14.40;54.60;;;;;;5029215;28;20042;-75
2021/05/03 11:44:58;;;;;;;9.65;6.22;;;14.50;54.90;;;;;;5028464;28;20025;-73
2021/05/03 11:47:26;;;;;;;8.10;5.10;;;14.70;53.60;;;;;;5027400;28;20052;-74
2021/05/03 11:49:52;;;;;;;8.50;5.43;;;14.60;53.10;;;;;;5030512;28;20022;-73
2021/05/03 11:52:26;;;;;;;11.57;5.95;;;14.70;53.40;;;;;;5027137;28;20040;-75
2021/05/03 11:54:52;;;;;;;9.38;5.85;;;14.90;52.90;;;;;;5028129;28;20053;-74
2021/05/03 11:57:20;;;;;;;7.95;4.95;;;14.70;52.80;;;;;;5028936;28;20056;-73
2021/05/03 11:59:46;;;;;;;10.35;6.18;;;14.90;53.00;;;;;;5028752;28;20101;-75
2021/05/03 12:02:14;;;;;;;11.68;6.07;;;14.70;52.90;;;;;;5030629;28;20033;-74
2021/05/03 12:04:43;;;;;;;12.63;5.10;;;14.90;52.80;;;;;;5029423;28;20090;-74
2021/05/03 12:07:15;;;;;;;13.95;5.93;;;14.80;52.20;;;;;;5029342;28;20049;-74
2021/05/03 12:09:45;;;;;;;9.10;5.63;;;15.10;52.80;;;;;;5027303;28;20145;-75
2021/05/03 12:12:12;;;;;;;8.43;5.88;;;15.00;52.00;;;;;;5028766;28;20417;-75
2021/05/03 12:14:46;;;;;;;14.10;5.75;;;15.00;52.10;;;;;;5028719;28;20056;-75
2021/05/03 12:17:14;;;;;;;12.90;6.22;;;15.00;52.20;;;;;;5030143;28;20022;-75
2021/05/03 12:19:40;;;;;;;7.05;4.57;;;15.30;52.10;;;;;;5027724;28;20052;-75
2021/05/03 12:22:05;;;;;;;7.65;4.82;;;15.20;50.70;;;;;;5028562;28;20050;-76
2021/05/03 12:24:38;;;;;;;8.15;4.38;;;15.10;50.60;;;;;;5028519;28;20491;-74
2021/05/03 12:27:04;;;;;;;6.97;4.55;;;15.10;50.90;;;;;;5028423;28;20041;-74
2021/05/03 12:29:30;;;;;;;10.82;4.82;;;15.10;50.30;;;;;;5028268;28;20068;-74
2021/05/03 12:31:57;;;;;;;9.82;4.43;;;15.20;50.20;;;;;;5030245;28;20057;-75
2021/05/03 12:34:24;;;;;;;9.38;4.55;;;15.20;50.70;;;;;;5030636;28;20056;-74
2021/05/03 12:37:06;;;;;;;7.25;4.20;;;15.30;50.50;;;;;;5032060;28;20092;-75
2021/05/03 12:39:34;;;;;;;8.43;4.60;;;15.10;50.20;;;;;;5031850;28;20037;-74
2021/05/03 12:42:14;;;;;;;8.23;5.05;;;15.30;50.30;;;;;;5031899;28;20117;-74
2021/05/03 12:44:48;;;;;;;6.90;4.03;;;15.20;49.80;;;;;;5030594;28;20037;-75
2021/05/03 12:52:45;;;;;;;5.88;4.07;;;15.30;49.80;;;;;;5031936;28;20141;-75
2021/05/03 12:55:30;;;;;;;;;;;15.40;49.80;;;;;;5031094;28;20364;-75
2021/05/03 12:58:08;;;;;;;7.93;5.15;;;15.30;49.70;;;;;;5031771;28;19910;-74
2021/05/03 13:00:49;;;;;;;10.90;4.22;;;15.20;49.00;;;;;;5031969;28;20038;-74
2021/05/03 13:03:18;;;;;;;9.23;4.60;;;15.40;49.70;;;;;;5031650;28;20307;-74
2021/05/03 13:06:04;;;;;;;5.93;4.32;;;15.40;48.60;;;;;;5031650;28;20455;-75
2021/05/03 13:09:01;;;;;;;5.75;4.13;;;15.50;48.40;;;;;;5031617;28;20095;-73
2021/05/03 13:28:08;;;;;;;5.97;4.00;;;15.50;45.60;;;;;;5030522;28;20087;-74
2021/05/03 13:30:36;;;;;;;6.72;3.95;;;15.60;46.30;;;;;;5030928;28;20038;-74
2021/05/03 13:33:03;;;;;;;5.90;3.20;;;15.60;46.60;;;;;;5030948;28;20144;-74
2021/05/03 13:35:29;;;;;;;7.65;4.13;;;15.70;46.90;;;;;;5028980;28;20151;-76
2021/05/03 13:37:55;;;;;;;7.38;4.05;;;15.80;47.20;;;;;;5032422;28;20447;-75
2021/05/03 13:40:21;;;;;;;5.88;3.65;;;15.70;45.80;;;;;;5031129;28;20029;-75
2021/05/03 13:42:51;;;;;;;13.05;4.05;;;15.60;45.90;;;;;;5030806;28;20044;-74
2021/05/03 13:45:17;;;;;;;9.57;3.55;;;15.70;46.00;;;;;;5030769;28;20033;-75